| time (UTC) | temp C | wind direction | speed KPH | gust KPH | rain 1hr cm | rain 24hr cm | rain mn cm | humidity % | barometer mb |
| 20260504021608 | 14 | 244 | 0.0 | 0.0 | 0.00 | 0.00 | 0.00 | 66 | 1005.9 |
| 20260504021104 | 14 | 244 | 0.0 | 0.0 | 0.00 | 0.00 | 0.00 | 65 | 1006.0 |
| 20260504020601 | 15 | 244 | 0.0 | 0.0 | 0.00 | 0.00 | 0.00 | 66 | 1005.9 |
| 20260504020057 | 15 | 244 | 0.0 | 0.0 | 0.00 | 0.00 | 0.00 | 63 | 1005.8 |
| 20260504015554 | 15 | 244 | 0.0 | 0.0 | 0.00 | 0.00 | 0.00 | 62 | 1005.8 |
| 20260504015049 | 15 | 244 | 0.0 | 0.0 | 0.00 | 0.00 | 0.00 | 61 | 1005.7 |
| 20260504014546 | 15 | 244 | 0.0 | 0.0 | 0.00 | 0.00 | 0.00 | 60 | 1005.8 |
| 20260504014043 | 15 | 244 | 0.0 | 0.0 | 0.00 | 0.00 | 0.00 | 60 | 1005.8 |
| 20260504013541 | 16 | 244 | 0.0 | 0.0 | 0.00 | 0.00 | 0.00 | 59 | 1005.7 |
| 20260504013038 | 16 | 245 | 0.0 | 0.0 | 0.00 | 0.00 | 0.00 | 58 | 1005.7 |
| 20260504012535 | 16 | 244 | 0.0 | 0.0 | 0.00 | 0.00 | 0.00 | 57 | 1005.6 |
| 20260504012033 | 16 | 245 | 0.0 | 0.0 | 0.00 | 0.00 | 0.00 | 56 | 1005.7 |
| 20260504011529 | 17 | 244 | 0.0 | 0.0 | 0.00 | 0.00 | 0.00 | 54 | 1005.6 |
| 20260504011025 | 17 | 245 | 0.0 | 0.0 | 0.00 | 0.00 | 0.00 | 54 | 1005.5 |
| 20260504010521 | 17 | 245 | 0.0 | 0.0 | 0.00 | 0.00 | 0.00 | 53 | 1005.4 |
| 20260504010017 | 17 | 245 | 0.0 | 1.6 | 0.00 | 0.00 | 0.00 | 52 | 1005.3 |
| 20260504005514 | 18 | 245 | 0.0 | 0.0 | 0.00 | 0.00 | 0.00 | 51 | 1005.4 |
| 20260504005012 | 18 | 243 | 1.6 | 1.6 | 0.00 | 0.00 | 0.00 | 51 | 1005.4 |
| 20260504004510 | 18 | 245 | 1.6 | 1.6 | 0.00 | 0.00 | 0.00 | 50 | 1005.2 |
| 20260504004006 | 18 | 238 | 1.6 | 3.2 | 0.00 | 0.00 | 0.00 | 49 | 1005.5 |
| 20260504003502 | 18 | 223 | 1.6 | 1.6 | 0.00 | 0.00 | 0.00 | 48 | 1005.2 |
| 20260504002959 | 19 | 252 | 4.8 | 4.8 | 0.00 | 0.00 | 0.00 | 48 | 1005.4 |
| 20260504002456 | 19 | 229 | 1.6 | 3.2 | 0.00 | 0.00 | 0.00 | 48 | 1005.5 |
| 20260504001954 | 19 | 237 | 3.2 | 3.2 | 0.00 | 0.00 | 0.00 | 47 | 1005.5 |
| 20260504001451 | 19 | 242 | 3.2 | 4.8 | 0.00 | 0.00 | 0.00 | 47 | 1005.3 |
| 20260504000947 | 19 | 249 | 4.8 | 4.8 | 0.00 | 0.00 | 0.00 | 47 | 1005.3 |
| 20260504000445 | 19 | 274 | 4.8 | 4.8 | 0.00 | 0.00 | 0.00 | 47 | 1005.4 |
| 20260503235942 | 20 | 236 | 1.6 | 1.6 | 0.00 | 0.00 | 0.00 | 46 | 1005.6 |
| 20260503235439 | 20 | 274 | 6.4 | 9.7 | 0.00 | 0.00 | 0.00 | 46 | 1005.4 |
| 20260503234937 | 20 | 240 | 8.0 | 11.3 | 0.00 | 0.00 | 0.00 | 46 | 1005.3 |
| 20260503234434 | 20 | 255 | 9.7 | 12.9 | 0.00 | 0.00 | 0.00 | 45 | 1005.5 |
| 20260503233932 | 20 | 240 | 4.8 | 4.8 | 0.00 | 0.00 | 0.00 | 46 | 1005.4 |
| 20260503233428 | 20 | 257 | 9.7 | 11.3 | 0.00 | 0.00 | 0.00 | 45 | 1005.4 |
| 20260503232925 | 20 | 301 | 4.8 | 8.0 | 0.00 | 0.00 | 0.00 | 44 | 1005.4 |
| 20260503232422 | 20 | 250 | 8.0 | 9.7 | 0.00 | 0.00 | 0.00 | 44 | 1005.6 |
| 20260503231920 | 20 | 251 | 4.8 | 8.0 | 0.00 | 0.00 | 0.00 | 44 | 1005.4 |
| 20260503231417 | 20 | 229 | 9.7 | 12.9 | 0.00 | 0.00 | 0.00 | 44 | 1005.6 |
| 20260503230913 | 20 | 261 | 6.4 | 8.0 | 0.00 | 0.00 | 0.00 | 43 | 1005.7 |
| 20260503230409 | 20 | 267 | 4.8 | 9.7 | 0.00 | 0.00 | 0.00 | 44 | 1005.6 |
| 20260503225908 | 20 | 251 | 11.3 | 12.9 | 0.00 | 0.00 | 0.00 | 43 | 1005.7 |
| 20260503225403 | 20 | 245 | 9.7 | 14.5 | 0.00 | 0.00 | 0.00 | 44 | 1005.8 |
| 20260503224900 | 20 | 231 | 4.8 | 8.0 | 0.00 | 0.00 | 0.00 | 45 | 1005.8 |
| 20260503224357 | 20 | 232 | 4.8 | 4.8 | 0.00 | 0.00 | 0.00 | 45 | 1005.5 |
| 20260503223855 | 20 | 272 | 8.0 | 11.3 | 0.00 | 0.00 | 0.00 | 45 | 1005.6 |
| 20260503223352 | 20 | 237 | 4.8 | 9.7 | 0.00 | 0.00 | 0.00 | 45 | 1005.7 |
| 20260503222847 | 20 | 250 | 8.0 | 11.3 | 0.00 | 0.00 | 0.00 | 45 | 1005.8 |
| 20260503222347 | 20 | 230 | 8.0 | 12.9 | 0.00 | 0.00 | 0.00 | 45 | 1006.0 |
| 20260503221844 | 20 | 245 | 9.7 | 12.9 | 0.00 | 0.00 | 0.00 | 44 | 1005.9 |
| 20260503221343 | 20 | 251 | 6.4 | 8.0 | 0.00 | 0.00 | 0.00 | 44 | 1006.0 |
| 20260503220838 | 20 | 265 | 6.4 | 9.7 | 0.00 | 0.00 | 0.00 | 44 | 1006.0 |
| 20260503220335 | 20 | 245 | 4.8 | 4.8 | 0.00 | 0.00 | 0.00 | 44 | 1005.9 |
| 20260503215832 | 20 | 248 | 8.0 | 11.3 | 0.00 | 0.00 | 0.00 | 44 | 1006.2 |
| 20260503215329 | 20 | 246 | 8.0 | 9.7 | 0.00 | 0.00 | 0.00 | 44 | 1005.8 |
| 20260503214826 | 20 | 246 | 9.7 | 14.5 | 0.00 | 0.00 | 0.00 | 44 | 1006.3 |
| 20260503214324 | 19 | 240 | 8.0 | 11.3 | 0.00 | 0.00 | 0.00 | 44 | 1006.0 |
| 20260503213821 | 19 | 210 | 11.3 | 16.1 | 0.00 | 0.00 | 0.00 | 44 | 1006.2 |
| 20260503213319 | 19 | 259 | 8.0 | 11.3 | 0.00 | 0.00 | 0.00 | 44 | 1006.2 |
| 20260503212815 | 19 | 241 | 8.0 | 11.3 | 0.00 | 0.00 | 0.00 | 44 | 1006.5 |
| 20260503212313 | 20 | 223 | 6.4 | 8.0 | 0.00 | 0.00 | 0.00 | 44 | 1006.5 |
| 20260503211810 | 19 | 253 | 4.8 | 4.8 | 0.00 | 0.00 | 0.00 | 45 | 1006.6 |
| 20260503211307 | 18 | 219 | 11.3 | 12.9 | 0.00 | 0.00 | 0.00 | 44 | 1006.6 |
| 20260503210807 | 18 | 195 | 11.3 | 20.9 | 0.00 | 0.00 | 0.00 | 44 | 1006.8 |
| 20260503210305 | 18 | 170 | 9.7 | 12.9 | 0.00 | 0.00 | 0.00 | 44 | 1006.9 |
| 20260503205800 | 18 | 224 | 4.8 | 8.0 | 0.00 | 0.00 | 0.00 | 44 | 1006.7 |
| 20260503205256 | 18 | 213 | 8.0 | 11.3 | 0.00 | 0.00 | 0.00 | 44 | 1007.1 |
| 20260503204753 | 18 | 212 | 11.3 | 14.5 | 0.00 | 0.00 | 0.00 | 44 | 1007.0 |
| 20260503204251 | 18 | 247 | 9.7 | 14.5 | 0.00 | 0.00 | 0.00 | 44 | 1007.2 |
| 20260503203748 | 18 | 236 | 4.8 | 8.0 | 0.00 | 0.00 | 0.00 | 46 | 1007.2 |
| 20260503203245 | 18 | 235 | 16.1 | 22.5 | 0.00 | 0.00 | 0.00 | 48 | 1007.2 |
| 20260503202742 | 18 | 191 | 17.7 | 22.5 | 0.00 | 0.00 | 0.00 | 48 | 1007.5 |
| 20260503202240 | 18 | 242 | 11.3 | 12.9 | 0.00 | 0.00 | 0.00 | 48 | 1007.5 |
| 20260503201737 | 17 | 258 | 9.7 | 16.1 | 0.00 | 0.00 | 0.00 | 50 | 1007.6 |
| 20260503201235 | 17 | 199 | 14.5 | 22.5 | 0.00 | 0.00 | 0.00 | 49 | 1007.7 |
| 20260503200731 | 17 | 223 | 8.0 | 11.3 | 0.00 | 0.00 | 0.00 | 50 | 1007.8 |
| 20260503200228 | 17 | 238 | 14.5 | 16.1 | 0.00 | 0.00 | 0.00 | 51 | 1008.0 |
| 20260503195724 | 17 | 205 | 16.1 | 20.9 | 0.00 | 0.00 | 0.00 | 49 | 1008.4 |
| 20260503195222 | 17 | 217 | 9.7 | 12.9 | 0.00 | 0.00 | 0.00 | 49 | 1008.5 |
| 20260503194719 | 17 | 147 | 11.3 | 22.5 | 0.00 | 0.00 | 0.00 | 49 | 1008.6 |
| 20260503194215 | 17 | 193 | 8.0 | 11.3 | 0.00 | 0.00 | 0.00 | 49 | 1008.7 |
| 20260503193711 | 16 | 215 | 9.7 | 12.9 | 0.00 | 0.00 | 0.00 | 50 | 1008.5 |
| 20260503193207 | 17 | 197 | 12.9 | 16.1 | 0.00 | 0.00 | 0.00 | 49 | 1008.6 |
| 20260503192703 | 17 | 250 | 12.9 | 17.7 | 0.00 | 0.00 | 0.00 | 47 | 1009.0 |
| 20260503192158 | 16 | 229 | 11.3 | 12.9 | 0.00 | 0.00 | 0.00 | 47 | 1008.8 |
| 20260503191655 | 16 | 219 | 6.4 | 8.0 | 0.00 | 0.00 | 0.00 | 49 | 1008.7 |
| 20260503191152 | 16 | 210 | 9.7 | 14.5 | 0.00 | 0.00 | 0.00 | 47 | 1008.5 |
| 20260503190649 | 16 | 211 | 17.7 | 27.4 | 0.00 | 0.00 | 0.00 | 46 | 1008.9 |
| 20260503190146 | 17 | 204 | 4.8 | 8.0 | 0.00 | 0.00 | 0.00 | 48 | 1008.7 |
| 20260503185642 | 16 | 187 | 6.4 | 11.3 | 0.00 | 0.00 | 0.00 | 48 | 1008.8 |
| 20260503185138 | 17 | 183 | 12.9 | 16.1 | 0.00 | 0.00 | 0.00 | 47 | 1008.6 |
| 20260503184633 | 17 | 210 | 9.7 | 12.9 | 0.00 | 0.00 | 0.00 | 46 | 1008.7 |
| 20260503184130 | 17 | 237 | 4.8 | 4.8 | 0.00 | 0.00 | 0.00 | 48 | 1008.8 |
| 20260503183626 | 16 | 212 | 11.3 | 14.5 | 0.00 | 0.00 | 0.00 | 48 | 1009.1 |
| 20260503183124 | 16 | 169 | 8.0 | 11.3 | 0.00 | 0.00 | 0.00 | 50 | 1009.2 |
| 20260503182622 | 16 | 277 | 8.0 | 9.7 | 0.00 | 0.00 | 0.00 | 51 | 1009.2 |
| 20260503182120 | 16 | 243 | 14.5 | 17.7 | 0.00 | 0.00 | 0.00 | 49 | 1009.1 |
| 20260503181616 | 16 | 236 | 6.4 | 9.7 | 0.00 | 0.00 | 0.00 | 52 | 1009.2 |
| 20260503181113 | 16 | 147 | 14.5 | 17.7 | 0.00 | 0.00 | 0.00 | 51 | 1009.4 |
| 20260503180610 | 15 | 238 | 9.7 | 11.3 | 0.00 | 0.00 | 0.00 | 51 | 1009.6 |
| 20260503180108 | 15 | 201 | 8.0 | 11.3 | 0.00 | 0.00 | 0.00 | 53 | 1009.8 |
| 20260503175605 | 15 | 214 | 12.9 | 14.5 | 0.00 | 0.00 | 0.00 | 53 | 1009.8 |
| 20260503175102 | 15 | 224 | 14.5 | 16.1 | 0.00 | 0.00 | 0.00 | 53 | 1009.9 |
| 20260503174558 | 15 | 243 | 4.8 | 4.8 | 0.00 | 0.00 | 0.00 | 55 | 1010.0 |
| 20260503174055 | 15 | 185 | 6.4 | 8.0 | 0.00 | 0.00 | 0.00 | 56 | 1010.3 |
| 20260503173550 | 15 | 236 | 6.4 | 11.3 | 0.00 | 0.00 | 0.00 | 57 | 1010.4 |
| 20260503173047 | 14 | 128 | 9.7 | 11.3 | 0.00 | 0.00 | 0.00 | 59 | 1010.5 |
| 20260503172544 | 14 | 229 | 6.4 | 8.0 | 0.00 | 0.00 | 0.00 | 59 | 1010.6 |
| 20260503172041 | 13 | 157 | 8.0 | 11.3 | 0.00 | 0.00 | 0.00 | 61 | 1011.0 |
| 20260503171538 | 13 | 217 | 4.8 | 4.8 | 0.00 | 0.00 | 0.00 | 62 | 1011.2 |
| 20260503171035 | 12 | 188 | 14.5 | 22.5 | 0.00 | 0.00 | 0.00 | 62 | 1011.1 |
| 20260503170532 | 12 | 218 | 11.3 | 12.9 | 0.00 | 0.00 | 0.00 | 62 | 1011.1 |
| 20260503150924 | 13 | 265 | 9.7 | 12.9 | 0.00 | 0.00 | 0.00 | 56 | 1012.7 |
| 20260503150421 | 13 | 245 | 8.0 | 9.7 | 0.00 | 0.00 | 0.00 | 56 | 1012.6 |
| 20260503131314 | 11 | 203 | 11.3 | 14.5 | 0.00 | 0.00 | 0.00 | 55 | 1013.4 |
| 20260503130811 | 11 | 215 | 8.0 | 12.9 | 0.00 | 0.00 | 0.00 | 56 | 1013.5 |
| 20260503130309 | 11 | 251 | 6.4 | 9.7 | 0.00 | 0.00 | 0.00 | 57 | 1013.4 |
| 20260503110702 | 9 | 261 | 4.8 | 4.8 | 0.00 | 0.00 | 0.00 | 56 | 1013.0 |
| 20260503110200 | 9 | 277 | 6.4 | 8.0 | 0.00 | 0.00 | 0.00 | 56 | 1013.0 |
| 20260503100126 | 10 | 246 | 4.8 | 8.0 | 0.00 | 0.00 | 0.00 | 52 | 1013.4 |
| 20260503081516 | 8 | 237 | 1.6 | 3.2 | 0.00 | 0.00 | 0.00 | 54 | 1014.1 |
| 20260503081013 | 8 | 242 | 4.8 | 4.8 | 0.00 | 0.00 | 0.00 | 54 | 1014.2 |
| 20260503080509 | 8 | 235 | 4.8 | 4.8 | 0.00 | 0.00 | 0.00 | 54 | 1014.0 |
| 20260503072442 | 8 | 241 | 4.8 | 4.8 | 0.00 | 0.00 | 0.00 | 55 | 1014.3 |
| 20260503071939 | 8 | 247 | 3.2 | 3.2 | 0.00 | 0.00 | 0.00 | 55 | 1014.2 |
| 20260503071436 | 8 | 228 | 3.2 | 3.2 | 0.00 | 0.00 | 0.00 | 56 | 1014.2 |
| 20260503070932 | 8 | 240 | 4.8 | 4.8 | 0.00 | 0.00 | 0.00 | 56 | 1014.4 |
| 20260503070430 | 8 | 244 | 3.2 | 4.8 | 0.00 | 0.00 | 0.00 | 57 | 1014.3 |
| 20260503054843 | 8 | 247 | 1.6 | 3.2 | 0.00 | 0.00 | 0.00 | 58 | 1015.1 |
| 20260503054339 | 8 | 231 | 1.6 | 3.2 | 0.00 | 0.00 | 0.00 | 58 | 1015.1 |
| 20260503053837 | 8 | 214 | 1.6 | 1.6 | 0.00 | 0.00 | 0.00 | 58 | 1015.1 |
| 20260503053335 | 8 | 230 | 1.6 | 1.6 | 0.00 | 0.00 | 0.00 | 58 | 1015.2 |
| 20260503052831 | 7 | 225 | 3.2 | 3.2 | 0.00 | 0.00 | 0.00 | 59 | 1015.3 |
| 20260503052328 | 7 | 235 | 1.6 | 1.6 | 0.00 | 0.00 | 0.00 | 59 | 1015.4 |
| 20260503051824 | 7 | 237 | 3.2 | 3.2 | 0.00 | 0.00 | 0.00 | 59 | 1015.3 |
| 20260503051321 | 7 | 227 | 1.6 | 1.6 | 0.00 | 0.00 | 0.00 | 59 | 1015.2 |
| 20260503050818 | 7 | 231 | 1.6 | 1.6 | 0.00 | 0.00 | 0.00 | 59 | 1015.3 |
| 20260503050314 | 8 | 235 | 1.6 | 3.2 | 0.00 | 0.00 | 0.00 | 59 | 1015.4 |
| 20260503045812 | 8 | 228 | 1.6 | 1.6 | 0.00 | 0.00 | 0.00 | 58 | 1015.3 |
| 20260503045309 | 8 | 215 | 3.2 | 3.2 | 0.00 | 0.00 | 0.00 | 58 | 1015.5 |
| 20260503044805 | 8 | 210 | 1.6 | 3.2 | 0.00 | 0.00 | 0.00 | 58 | 1015.4 |
| 20260503044302 | 8 | 230 | 3.2 | 3.2 | 0.00 | 0.00 | 0.00 | 58 | 1015.5 |
| 20260503043800 | 8 | 234 | 1.6 | 3.2 | 0.00 | 0.00 | 0.00 | 58 | 1015.4 |
| 20260503043257 | 8 | 240 | 1.6 | 1.6 | 0.00 | 0.00 | 0.00 | 58 | 1015.3 |
| 20260503042752 | 8 | 235 | 1.6 | 3.2 | 0.00 | 0.00 | 0.00 | 58 | 1015.5 |
| 20260503042249 | 8 | 233 | 3.2 | 3.2 | 0.00 | 0.00 | 0.00 | 58 | 1015.6 |
| 20260503041745 | 8 | 231 | 1.6 | 1.6 | 0.00 | 0.00 | 0.00 | 57 | 1015.6 |
| 20260503041243 | 8 | 234 | 1.6 | 1.6 | 0.00 | 0.00 | 0.00 | 57 | 1015.2 |
| 20260503040741 | 8 | 233 | 1.6 | 3.2 | 0.00 | 0.00 | 0.00 | 57 | 1015.3 |
| 20260503040238 | 8 | 231 | 1.6 | 1.6 | 0.00 | 0.00 | 0.00 | 57 | 1015.4 |
| 20260503035735 | 8 | 242 | 1.6 | 3.2 | 0.00 | 0.00 | 0.00 | 58 | 1015.6 |
| 20260503035232 | 8 | 233 | 0.0 | 1.6 | 0.00 | 0.00 | 0.00 | 58 | 1015.5 |
| 20260503034729 | 8 | 234 | 3.2 | 3.2 | 0.00 | 0.00 | 0.00 | 57 | 1015.7 |
| 20260503034226 | 8 | 232 | 1.6 | 1.6 | 0.00 | 0.00 | 0.00 | 57 | 1015.9 |
| 20260503033724 | 8 | 234 | 0.0 | 1.6 | 0.00 | 0.00 | 0.00 | 57 | 1015.8 |
| 20260503033221 | 8 | 229 | 3.2 | 3.2 | 0.00 | 0.00 | 0.00 | 56 | 1015.7 |
| 20260503032720 | 8 | 237 | 1.6 | 1.6 | 0.00 | 0.00 | 0.00 | 56 | 1015.8 |
| 20260503032218 | 8 | 233 | 1.6 | 1.6 | 0.00 | 0.00 | 0.00 | 56 | 1016.0 |
| 20260503031714 | 8 | 232 | 1.6 | 1.6 | 0.00 | 0.00 | 0.00 | 56 | 1015.9 |
| 20260503031213 | 8 | 236 | 0.0 | 1.6 | 0.00 | 0.00 | 0.00 | 55 | 1015.9 |
| 20260503030708 | 8 | 230 | 1.6 | 1.6 | 0.00 | 0.00 | 0.00 | 56 | 1015.9 |
| 20260503030205 | 8 | 228 | 1.6 | 1.6 | 0.00 | 0.00 | 0.00 | 56 | 1015.9 |
| 20260503025702 | 8 | 230 | 0.0 | 1.6 | 0.00 | 0.00 | 0.00 | 55 | 1015.8 |
| 20260503025200 | 8 | 235 | 0.0 | 0.0 | 0.00 | 0.00 | 0.00 | 55 | 1016.1 |
| 20260503024656 | 8 | 226 | 1.6 | 1.6 | 0.00 | 0.00 | 0.00 | 55 | 1016.0 |
| 20260503024154 | 8 | 235 | 0.0 | 0.0 | 0.00 | 0.00 | 0.00 | 55 | 1016.1 |
| 20260503023650 | 9 | 235 | 0.0 | 0.0 | 0.00 | 0.00 | 0.00 | 55 | 1015.8 |
| 20260503023147 | 9 | 233 | 0.0 | 1.6 | 0.00 | 0.00 | 0.00 | 55 | 1015.9 |
| 20260503022644 | 9 | 233 | 1.6 | 1.6 | 0.00 | 0.00 | 0.00 | 55 | 1016.0 |
| 20260503022142 | 9 | 227 | 1.6 | 1.6 | 0.00 | 0.00 | 0.00 | 54 | 1015.8 |